Time;durP1;ratioP1;P1;durP2;ratioP2;P2;SDS_P1;SDS_P2;PMS_P1;PMS_P2;Temp;Humidity;BMP_temperature;BMP_pressure;BME280_temperature;BME280_humidity;BME280_pressure;Samples;Min_cycle;Max_cycle;Signal;HPM_P1;HPM_P2
2024/02/10 00:02:06;;;;;;;3.10;2.80;;;;;;;-0.73;100.00;99347.59;104822;1259;61030;-52
2024/02/10 00:04:34;;;;;;;3.10;2.90;;;;;;;-0.72;100.00;99343.01;105459;1259;61344;-54
2024/02/10 00:07:01;;;;;;;2.90;2.70;;;;;;;-0.70;100.00;99341.41;105315;1257;73774;-53
2024/02/10 00:09:29;;;;;;;3.00;2.80;;;;;;;-0.68;100.00;99335.76;105122;1254;65786;-52
2024/02/10 00:11:57;;;;;;;3.10;2.80;;;;;;;-0.67;100.00;99323.56;104940;1260;72442;-53
2024/02/10 00:14:26;;;;;;;3.10;2.30;;;;;;;-0.68;100.00;99321.46;104982;1257;60970;-52
2024/02/10 00:16:53;;;;;;;3.30;2.70;;;;;;;-0.66;100.00;99322.14;104812;1258;60528;-53
2024/02/10 00:19:21;;;;;;;3.50;3.20;;;;;;;-0.64;100.00;99326.17;105005;1259;73004;-52
2024/02/10 00:21:49;;;;;;;2.10;1.90;;;;;;;-0.60;100.00;99320.86;104944;1261;67074;-51
2024/02/10 00:24:17;;;;;;;2.50;2.30;;;;;;;-0.57;100.00;99316.77;104973;1258;71988;-52
2024/02/10 00:26:45;;;;;;;3.30;3.10;;;;;;;-0.56;100.00;99317.82;104891;1260;62335;-52
2024/02/10 00:29:13;;;;;;;3.30;3.00;;;;;;;-0.57;100.00;99321.52;105322;1259;60598;-52
2024/02/10 00:31:44;;;;;;;3.40;3.10;;;;;;;-0.59;100.00;99323.29;104866;1254;72687;-53
2024/02/10 00:34:13;;;;;;;3.50;3.20;;;;;;;-0.60;100.00;99331.60;105172;1260;65654;-51
2024/02/10 00:36:41;;;;;;;3.60;3.30;;;;;;;-0.63;100.00;99336.22;105197;1257;71467;-52
2024/02/10 00:39:08;;;;;;;3.10;2.80;;;;;;;-0.67;100.00;99338.72;105024;1259;61353;-52
2024/02/10 00:41:35;;;;;;;3.40;3.10;;;;;;;-0.70;100.00;99342.29;104887;1258;61056;-54
2024/02/10 00:44:02;;;;;;;3.70;3.20;;;;;;;-0.70;100.00;99337.88;104991;1254;74927;-53
2024/02/10 00:46:31;;;;;;;2.60;2.40;;;;;;;-0.69;100.00;99336.46;105034;1258;65558;-52
2024/02/10 00:49:00;;;;;;;3.10;2.90;;;;;;;-0.67;100.00;99332.55;104881;1262;71738;-54
2024/02/10 00:51:30;;;;;;;2.90;2.70;;;;;;;-0.66;100.00;99329.36;105028;1259;61420;-53
2024/02/10 00:53:57;;;;;;;3.20;3.00;;;;;;;-0.64;100.00;99328.48;105312;1260;59999;-53
2024/02/10 00:56:24;;;;;;;2.40;2.20;;;;;;;-0.60;100.00;99327.57;105003;1260;73364;-52
2024/02/10 00:58:52;;;;;;;3.00;2.10;;;;;;;-0.58;100.00;99327.00;104914;1265;65726;-53
2024/02/10 01:01:22;;;;;;;2.90;2.60;;;;;;;-0.56;100.00;99323.63;104867;1255;71432;-52
2024/02/10 01:03:50;;;;;;;3.50;2.90;;;;;;;-0.55;100.00;99320.27;105094;1260;61061;-52
2024/02/10 01:06:20;;;;;;;3.40;3.10;;;;;;;-0.55;100.00;99313.23;105479;1263;61068;-54
2024/02/10 01:08:50;;;;;;;3.50;3.30;;;;;;;-0.56;100.00;99310.05;105315;1260;73887;-51
2024/02/10 01:11:19;;;;;;;3.30;3.10;;;;;;;-0.57;100.00;99309.89;105172;1264;67013;-52
2024/02/10 01:13:49;;;;;;;2.40;2.20;;;;;;;-0.59;100.00;99304.98;104714;1258;73235;-50
2024/02/10 01:16:18;;;;;;;2.60;2.40;;;;;;;-0.59;100.00;99304.80;106527;1255;60786;-53
2024/02/10 01:18:48;;;;;;;2.90;2.70;;;;;;;-0.59;100.00;99301.81;108845;1254;146836;-54
2024/02/10 01:22:17;;;;;;;3.30;3.00;;;;;;;-0.56;100.00;99372.80;102266;1289;600877;-54
2024/02/10 01:24:45;;;;;;;2.80;2.60;;;;;;;-0.57;100.00;99372.27;108231;1264;59166;-54
2024/02/10 01:27:16;;;;;;;3.80;3.40;;;;;;;-0.57;100.00;99357.30;108445;1266;59350;-54
2024/02/10 01:29:47;;;;;;;3.20;2.90;;;;;;;-0.57;100.00;99350.77;108420;1266;71030;-53
2024/02/10 01:32:20;;;;;;;3.70;3.40;;;;;;;-0.56;100.00;99344.77;108390;1266;67413;-54
2024/02/10 01:34:48;;;;;;;2.90;2.70;;;;;;;-0.55;100.00;99341.25;108196;1263;193758;-54
2024/02/10 01:37:19;;;;;;;2.80;2.60;;;;;;;-0.53;100.00;99336.65;104556;1264;59739;-53
2024/02/10 01:39:47;;;;;;;3.10;2.90;;;;;;;-0.51;100.00;99330.78;104503;1262;60102;-53
2024/02/10 01:42:37;;;;;;;3.10;2.90;;;;;;;-0.50;100.00;99322.14;104325;1264;72056;-53
2024/02/10 01:45:08;;;;;;;3.10;2.90;;;;;;;-0.49;100.00;99327.08;104253;1263;66595;-53
2024/02/10 01:47:38;;;;;;;1.80;1.60;;;;;;;-0.49;100.00;99324.25;104271;1263;73102;-53
2024/02/10 01:50:06;;;;;;;2.30;2.10;;;;;;;-0.47;100.00;99325.64;108841;1250;59972;-54
2024/02/10 01:52:37;;;;;;;2.40;2.20;;;;;;;-0.46;100.00;99326.70;109269;1256;60208;-54
2024/02/10 01:55:05;;;;;;;2.00;1.90;;;;;;;-0.45;100.00;99324.40;109275;1250;73095;-54
2024/02/10 01:57:33;;;;;;;2.10;1.90;;;;;;;-0.43;100.00;99327.01;107534;1254;66023;-53
2024/02/10 02:00:01;;;;;;;2.60;2.40;;;;;;;-0.41;100.00;99328.75;105429;1257;71416;-54
2024/02/10 02:02:31;;;;;;;2.30;2.10;;;;;;;-0.37;100.00;99325.90;105164;1251;59628;-54
2024/02/10 02:05:00;;;;;;;1.80;1.60;;;;;;;-0.34;100.00;99322.48;105067;1251;59721;-53
2024/02/10 02:07:30;;;;;;;2.60;2.40;;;;;;;-0.31;100.00;99327.05;105774;1254;71715;-55
2024/02/10 02:09:59;;;;;;;2.20;2.10;;;;;;;-0.31;100.00;99330.59;105788;1254;65839;-55
2024/02/10 02:12:27;;;;;;;3.10;2.80;;;;;;;-0.33;100.00;99329.90;105108;1257;73192;-52
2024/02/10 02:14:57;;;;;;;3.20;3.00;;;;;;;-0.35;100.00;99330.47;104860;1256;59871;-54
2024/02/10 02:17:25;;;;;;;3.40;3.20;;;;;;;-0.36;100.00;99322.02;105532;1253;59689;-52
2024/02/10 02:19:53;;;;;;;2.40;2.20;;;;;;;-0.38;100.00;99322.55;104875;1258;75207;-52
2024/02/10 02:22:20;;;;;;;2.60;2.40;;;;;;;-0.37;100.00;99327.14;105019;1259;66690;-53
2024/02/10 02:24:48;;;;;;;2.30;2.10;;;;;;;-0.38;100.00;99325.73;105387;1253;71481;-54
2024/02/10 02:27:15;;;;;;;2.00;1.90;;;;;;;-0.36;100.00;99324.48;105111;1258;59740;-53
2024/02/10 02:29:42;;;;;;;2.20;2.00;;;;;;;-0.35;100.00;99321.13;105429;1254;60660;-53
2024/02/10 02:32:10;;;;;;;3.00;2.00;;;;;;;-0.34;100.00;99319.67;104917;1253;73061;-52
2024/02/10 02:34:38;;;;;;;3.00;1.90;;;;;;;-0.33;100.00;99320.20;105857;1257;67345;-55
2024/02/10 02:37:07;;;;;;;1.60;1.50;;;;;;;-0.32;100.00;99313.31;104937;1257;71395;-54
2024/02/10 02:39:35;;;;;;;2.50;2.30;;;;;;;-0.31;100.00;99312.42;105536;1253;61287;-54
2024/02/10 02:42:05;;;;;;;2.10;1.90;;;;;;;-0.29;100.00;99315.58;106017;1253;59661;-53
2024/02/10 02:44:33;;;;;;;1.60;1.50;;;;;;;-0.27;100.00;99316.45;105153;1253;72551;-54
2024/02/10 02:47:04;;;;;;;2.10;1.30;;;;;;;-0.26;100.00;99312.02;104954;1257;67075;-51
2024/02/10 02:49:34;;;;;;;1.30;1.20;;;;;;;-0.24;100.00;99311.27;106350;1253;71371;-56
2024/02/10 02:52:04;;;;;;;1.50;1.30;;;;;;;-0.22;100.00;99314.95;104989;1252;59846;-54
2024/02/10 02:54:34;;;;;;;2.00;1.40;;;;;;;-0.21;100.00;99316.70;104854;1254;59967;-55
2024/02/10 02:57:02;;;;;;;1.60;1.50;;;;;;;-0.20;100.00;99316.19;105064;1259;72830;-52
2024/02/10 02:59:29;;;;;;;1.30;1.20;;;;;;;-0.18;100.00;99320.75;104974;1259;67402;-55
2024/02/10 03:01:57;;;;;;;1.80;1.70;;;;;;;-0.18;100.00;99319.31;105019;1255;71471;-54
2024/02/10 03:04:24;;;;;;;2.00;1.60;;;;;;;-0.17;100.00;99315.23;104824;1259;59647;-55
2024/02/10 03:06:54;;;;;;;1.40;1.00;;;;;;;-0.16;100.00;99317.34;104811;1259;59677;-53
2024/02/10 03:09:21;;;;;;;1.70;1.30;;;;;;;-0.17;100.00;99319.13;105657;1257;73028;-54
2024/02/10 03:11:49;;;;;;;1.10;1.00;;;;;;;-0.18;100.00;99324.27;104831;1254;67659;-55
2024/02/10 03:14:17;;;;;;;1.50;1.40;;;;;;;-0.18;100.00;99331.15;104999;1257;73190;-55
2024/02/10 03:16:44;;;;;;;1.60;1.50;;;;;;;-0.18;100.00;99336.44;105094;1259;60735;-53
2024/02/10 03:19:11;;;;;;;3.10;1.40;;;;;;;-0.17;100.00;99339.57;104807;1258;59628;-55
2024/02/10 03:21:39;;;;;;;1.30;1.20;;;;;;;-0.17;100.00;99340.64;104926;1257;73564;-52
2024/02/10 03:24:06;;;;;;;2.10;1.80;;;;;;;-0.17;100.00;99328.99;104997;1258;67072;-55
2024/02/10 03:26:37;;;;;;;1.70;1.60;;;;;;;-0.15;100.00;99326.15;104733;1253;75025;-54
2024/02/10 03:29:05;;;;;;;1.70;1.60;;;;;;;-0.14;100.00;99320.33;105574;1254;60002;-54
2024/02/10 03:31:33;;;;;;;2.10;2.00;;;;;;;-0.14;100.00;99316.27;105280;1258;59970;-54
2024/02/10 03:34:01;;;;;;;1.80;1.70;;;;;;;-0.14;100.00;99320.85;104997;1259;72325;-54
2024/02/10 03:36:30;;;;;;;1.50;1.40;;;;;;;-0.14;100.00;99319.80;105049;1252;67118;-55
2024/02/10 03:39:04;;;;;;;2.20;2.00;;;;;;;-0.14;100.00;99321.02;104997;1257;71383;-53
2024/02/10 03:41:31;;;;;;;2.00;1.70;;;;;;;-0.12;100.00;99327.19;105617;1253;59846;-54
2024/02/10 03:44:00;;;;;;;1.80;1.70;;;;;;;-0.11;100.00;99328.77;105078;1253;59656;-54
2024/02/10 03:46:30;;;;;;;1.70;1.60;;;;;;;-0.12;100.00;99332.11;104975;1254;73634;-53
2024/02/10 03:48:59;;;;;;;2.00;1.90;;;;;;;-0.13;100.00;99333.36;108891;1253;65765;-55
2024/02/10 03:51:27;;;;;;;1.90;1.80;;;;;;;-0.13;100.00;99333.19;109016;1253;70876;-55
2024/02/10 03:53:55;;;;;;;1.60;1.50;;;;;;;-0.12;100.00;99324.73;106666;1253;59697;-52
2024/02/10 03:56:27;;;;;;;1.90;1.70;;;;;;;-0.13;100.00;99328.25;105336;1259;59548;-53
2024/02/10 03:58:54;;;;;;;1.70;1.60;;;;;;;-0.13;100.00;99328.61;104961;1265;72164;-53
2024/02/10 04:01:22;;;;;;;1.50;1.20;;;;;;;-0.14;100.00;99325.27;105025;1254;66896;-52
2024/02/10 04:03:49;;;;;;;3.50;1.30;;;;;;;-0.14;100.00;99322.27;108342;1254;72594;-53
2024/02/10 04:06:17;;;;;;;1.60;1.40;;;;;;;-0.15;100.00;99319.27;104860;1258;59710;-53
2024/02/10 04:08:47;;;;;;;1.40;1.30;;;;;;;-0.16;100.00;99322.11;109129;1256;60256;-54
2024/02/10 04:11:16;;;;;;;1.70;1.50;;;;;;;-0.15;100.00;99322.09;106031;1259;73095;-54
2024/02/10 04:13:45;;;;;;;1.20;1.00;;;;;;;-0.15;100.00;99319.10;105712;1258;66785;-53
2024/02/10 04:16:13;;;;;;;1.50;1.20;;;;;;;-0.16;100.00;99310.11;108455;1253;72174;-52
2024/02/10 04:18:41;;;;;;;4.00;2.50;;;;;;;-0.16;100.00;99312.77;108993;1253;59704;-53
2024/02/10 04:21:09;;;;;;;1.70;1.30;;;;;;;-0.16;100.00;99316.81;108993;1253;60116;-52
2024/02/10 04:23:37;;;;;;;1.80;1.60;;;;;;;-0.15;100.00;99318.92;109125;1253;71785;-54
2024/02/10 04:26:05;;;;;;;2.10;1.20;;;;;;;-0.13;100.00;99322.25;109111;1254;65927;-52
2024/02/10 04:28:35;;;;;;;1.60;1.30;;;;;;;-0.11;100.00;99323.13;109055;1257;71435;-52
2024/02/10 04:31:04;;;;;;;2.50;2.30;;;;;;;-0.10;100.00;99319.59;109083;1257;60117;-53
2024/02/10 04:33:31;;;;;;;2.10;1.80;;;;;;;-0.09;100.00;99323.28;109018;1253;58754;-52
2024/02/10 04:35:58;;;;;;;1.80;1.20;;;;;;;-0.09;100.00;99323.63;109032;1254;71844;-53
2024/02/10 04:38:26;;;;;;;3.00;1.40;;;;;;;-0.08;100.00;99320.44;109191;1253;66015;-53
2024/02/10 04:40:53;;;;;;;1.90;1.40;;;;;;;-0.08;100.00;99315.66;109007;1259;71457;-53
2024/02/10 04:43:21;;;;;;;2.10;1.30;;;;;;;-0.08;100.00;99316.36;109122;1253;59621;-52
2024/02/10 04:45:51;;;;;;;2.20;1.10;;;;;;;-0.08;100.00;99318.12;109086;1258;60181;-55
2024/02/10 04:48:19;;;;;;;1.40;1.30;;;;;;;-0.08;100.00;99322.70;109144;1254;73156;-54
2024/02/10 04:50:47;;;;;;;1.70;1.10;;;;;;;-0.08;100.00;99329.96;109053;1254;67122;-52
2024/02/10 04:53:15;;;;;;;1.80;1.30;;;;;;;-0.10;100.00;99331.58;107695;1255;74915;-53
2024/02/10 04:55:44;;;;;;;2.50;1.20;;;;;;;-0.11;100.00;99333.88;109052;1254;59652;-53
2024/02/10 04:58:12;;;;;;;1.30;1.10;;;;;;;-0.12;100.00;99336.17;107843;1256;59651;-53
2024/02/10 05:00:41;;;;;;;1.50;1.40;;;;;;;-0.13;100.00;99330.73;105173;1259;73156;-53
2024/02/10 05:03:09;;;;;;;1.70;1.30;;;;;;;-0.13;100.00;99332.31;105164;1257;65826;-52
2024/02/10 05:05:36;;;;;;;2.90;1.60;;;;;;;-0.12;100.00;99330.01;105590;1259;72706;-54
2024/02/10 05:08:06;;;;;;;1.50;1.20;;;;;;;-0.11;100.00;99328.41;104955;1259;59827;-56
2024/02/10 05:10:33;;;;;;;1.90;1.00;;;;;;;-0.11;100.00;99331.77;108035;1258;59896;-53
2024/02/10 05:13:01;;;;;;;1.90;1.80;;;;;;;-0.10;100.00;99333.86;104848;1259;73034;-53
2024/02/10 05:15:29;;;;;;;1.50;1.20;;;;;;;-0.08;100.00;99336.30;105048;1259;65330;-53
2024/02/10 05:17:56;;;;;;;3.10;1.90;;;;;;;-0.07;100.00;99336.45;104918;1260;70461;-53
2024/02/10 05:20:24;;;;;;;6.40;1.40;;;;;;;-0.07;100.00;99333.81;105124;1258;60396;-53
2024/02/10 05:22:53;;;;;;;1.60;1.40;;;;;;;-0.06;100.00;99334.69;105284;1254;60170;-54
2024/02/10 05:25:22;;;;;;;1.80;1.30;;;;;;;-0.05;100.00;99335.38;105405;1259;71816;-54
2024/02/10 05:27:50;;;;;;;3.00;1.60;;;;;;;-0.06;100.00;99336.10;105262;1259;66938;-54
2024/02/10 05:30:20;;;;;;;2.00;1.90;;;;;;;-0.08;100.00;99337.55;104964;1257;71888;-54
2024/02/10 05:32:49;;;;;;;9.00;1.70;;;;;;;-0.10;100.00;99347.63;105192;1259;61070;-55
2024/02/10 05:35:18;;;;;;;3.10;1.50;;;;;;;-0.13;100.00;99348.54;104985;1254;60580;-54
2024/02/10 05:37:56;;;;;;;2.10;1.80;;;;;;;-0.17;100.00;99343.65;104899;1257;74439;-54
2024/02/10 05:40:25;;;;;;;1.50;1.00;;;;;;;-0.19;100.00;99347.38;105201;1259;67761;-54
2024/02/10 05:42:58;;;;;;;1.90;1.20;;;;;;;-0.21;100.00;99346.69;106713;1258;72629;-53
2024/02/10 05:45:28;;;;;;;3.00;1.20;;;;;;;-0.22;100.00;99344.41;105240;1262;60619;-52
2024/02/10 05:47:55;;;;;;;1.60;1.40;;;;;;;-0.22;100.00;99343.00;105258;1260;60521;-54
2024/02/10 05:50:24;;;;;;;1.80;1.30;;;;;;;-0.23;100.00;99347.41;105095;1268;73829;-54
2024/02/10 05:52:52;;;;;;;2.20;1.60;;;;;;;-0.23;100.00;99349.35;105836;1257;65859;-54
2024/02/10 05:55:26;;;;;;;1.80;1.20;;;;;;;-0.22;100.00;99353.40;105409;1254;73179;-54
2024/02/10 05:57:55;;;;;;;;;;;;;;;-0.22;100.00;99348.29;105327;1255;60550;-54
2024/02/10 06:00:23;;;;;;;1.80;1.10;;;;;;;-0.20;100.00;99355.15;105383;1260;60450;-54
2024/02/10 06:02:51;;;;;;;1.70;1.20;;;;;;;-0.17;100.00;99365.87;105296;1260;73832;-53
2024/02/10 06:05:18;;;;;;;2.10;1.20;;;;;;;-0.17;100.00;99368.50;105117;1260;67081;-53
2024/02/10 06:07:48;;;;;;;2.50;1.10;;;;;;;-0.15;100.00;99370.41;104884;1254;73173;-53
2024/02/10 06:10:16;;;;;;;2.80;1.50;;;;;;;-0.13;100.00;99373.93;105216;1258;62103;-50
2024/02/10 06:12:49;;;;;;;1.70;1.60;;;;;;;-0.11;100.00;99373.39;105752;1254;60734;-54
2024/02/10 06:15:17;;;;;;;2.10;1.50;;;;;;;-0.09;100.00;99376.73;105514;1257;72168;-55
2024/02/10 06:17:56;;;;;;;2.40;1.80;;;;;;;-0.09;100.00;99370.55;104954;1255;67126;-53
2024/02/10 06:20:24;;;;;;;2.00;1.80;;;;;;;-0.08;100.00;99371.93;105233;1258;71341;-54
2024/02/10 06:22:53;;;;;;;2.00;1.70;;;;;;;-0.07;100.00;99365.04;105030;1258;61057;-53
2024/02/10 06:25:27;;;;;;;2.20;1.40;;;;;;;-0.07;100.00;99368.75;105512;1260;60768;-55
2024/02/10 06:27:57;;;;;;;2.50;1.60;;;;;;;-0.04;100.00;99375.23;105938;1254;72613;-55
2024/02/10 06:30:28;;;;;;;1.90;1.50;;;;;;;0.02;100.00;99376.77;105545;1254;65745;-54
2024/02/10 06:32:55;;;;;;;1.60;1.50;;;;;;;0.09;100.00;99377.02;104941;1254;71425;-54
2024/02/10 06:35:23;;;;;;;2.70;1.50;;;;;;;0.15;100.00;99380.30;104979;1257;60703;-54
2024/02/10 06:37:51;;;;;;;1.40;1.20;;;;;;;0.23;100.00;99382.14;105093;1261;60595;-54
2024/02/10 06:40:18;;;;;;;1.30;1.20;;;;;;;0.28;100.00;99380.30;105295;1258;73176;-53
2024/02/10 06:42:48;;;;;;;3.00;1.60;;;;;;;0.30;100.00;99380.64;105031;1260;65454;-52
2024/02/10 06:45:20;;;;;;;2.40;2.20;;;;;;;0.30;100.00;99380.29;104934;1254;73142;-52
2024/02/10 06:47:50;;;;;;;2.90;1.50;;;;;;;0.29;100.00;99384.36;106106;1256;60523;-53
2024/02/10 06:50:23;;;;;;;2.10;1.20;;;;;;;0.27;100.00;99382.42;104870;1258;60422;-54
2024/02/10 06:52:53;;;;;;;2.10;1.60;;;;;;;0.26;100.00;99386.34;105119;1259;72634;-54
2024/02/10 06:55:23;;;;;;;1.70;1.30;;;;;;;0.23;100.00;99379.51;104958;1260;66209;-54
2024/02/10 06:57:52;;;;;;;2.40;1.80;;;;;;;0.22;100.00;99385.68;107812;1259;72877;-53
2024/02/10 07:00:20;;;;;;;2.50;1.50;;;;;;;0.23;100.00;99386.02;104804;1259;61518;-54
2024/02/10 07:02:48;;;;;;;1.60;1.30;;;;;;;0.23;100.00;99386.73;105004;1260;60544;-53
2024/02/10 07:05:16;;;;;;;2.50;1.40;;;;;;;0.22;100.00;99388.68;104903;1259;72652;-53
2024/02/10 07:07:48;;;;;;;1.20;0.90;;;;;;;0.22;100.00;99387.98;105829;1257;65784;-54
2024/02/10 07:10:21;;;;;;;2.50;1.40;;;;;;;0.23;100.00;99387.80;104898;1259;72649;-53
2024/02/10 07:12:52;;;;;;;1.90;1.20;;;;;;;0.23;100.00;99390.09;105032;1257;61059;-54
2024/02/10 07:15:23;;;;;;;2.10;1.60;;;;;;;0.25;100.00;99394.83;109090;1259;59382;-55
2024/02/10 07:17:52;;;;;;;1.70;0.80;;;;;;;0.27;100.00;99398.66;107662;1255;72647;-54
2024/02/10 07:20:21;;;;;;;1.80;1.10;;;;;;;0.28;100.00;99398.66;109075;1254;66768;-54
2024/02/10 07:22:56;;;;;;;1.40;0.90;;;;;;;0.29;100.00;99401.30;109017;1254;72708;-54
2024/02/10 07:25:28;;;;;;;1.80;1.40;;;;;;;0.31;100.00;99404.29;107256;1257;60544;-53
2024/02/10 07:28:02;;;;;;;1.70;0.80;;;;;;;0.34;100.00;99406.18;104734;1260;60317;-55
2024/02/10 07:30:32;;;;;;;1.70;1.10;;;;;;;0.37;100.00;99405.26;109156;1254;72369;-54
2024/02/10 07:33:09;;;;;;;1.90;1.20;;;;;;;0.39;100.00;99406.30;109084;1254;65190;-53
2024/02/10 07:35:39;;;;;;;2.10;1.00;;;;;;;0.41;100.00;99404.69;109078;1254;71430;-55
2024/02/10 07:38:08;;;;;;;1.10;0.90;;;;;;;0.44;100.00;99406.91;105442;1261;61331;-53
2024/02/10 07:40:37;;;;;;;1.80;0.80;;;;;;;0.46;100.00;99407.79;104921;1253;60595;-52
2024/02/10 07:43:05;;;;;;;1.00;0.70;;;;;;;0.47;100.00;99408.30;104663;1258;73975;-54
2024/02/10 07:45:34;;;;;;;1.30;0.70;;;;;;;0.46;100.00;99406.36;104891;1254;66792;-52
2024/02/10 07:48:03;;;;;;;4.30;1.80;;;;;;;0.46;100.00;99404.25;104983;1257;72783;-55
2024/02/10 07:50:31;;;;;;;1.70;0.70;;;;;;;0.47;100.00;99406.20;107243;1255;60477;-53
2024/02/10 07:52:59;;;;;;;1.10;0.80;;;;;;;0.45;100.00;99407.96;105091;1257;60541;-55
2024/02/10 07:55:27;;;;;;;2.30;0.70;;;;;;;0.44;100.00;99406.40;105016;1260;71675;-54
2024/02/10 07:57:59;;;;;;;1.70;0.90;;;;;;;0.45;100.00;99408.15;104908;1259;67054;-53
2024/02/10 08:00:27;;;;;;;1.10;0.80;;;;;;;0.45;100.00;99405.84;104901;1257;72645;-54
2024/02/10 08:02:55;;;;;;;3.90;1.00;;;;;;;0.46;100.00;99407.08;105000;1261;60611;-52
2024/02/10 08:05:22;;;;;;;1.10;0.70;;;;;;;0.46;100.00;99403.55;105066;1259;60858;-55
2024/02/10 08:07:49;;;;;;;1.20;0.70;;;;;;;0.47;100.00;99405.31;104933;1260;71894;-52
2024/02/10 08:10:18;;;;;;;1.00;0.70;;;;;;;0.47;100.00;99410.60;104913;1254;67069;-54
2024/02/10 08:12:50;;;;;;;1.20;0.70;;;;;;;0.50;100.00;99410.58;104944;1254;73615;-53
2024/02/10 08:15:17;;;;;;;1.70;0.70;;;;;;;0.50;100.00;99415.67;105301;1255;60671;-54
2024/02/10 08:17:45;;;;;;;2.20;0.60;;;;;;;0.49;100.00;99411.99;104900;1257;60457;-52
2024/02/10 08:20:13;;;;;;;1.00;0.70;;;;;;;0.51;100.00;99405.60;104893;1257;72429;-53
2024/02/10 08:22:41;;;;;;;1.70;0.70;;;;;;;0.54;100.00;99408.02;104948;1255;66235;-54
2024/02/10 08:25:09;;;;;;;1.60;0.60;;;;;;;0.55;100.00;99405.36;105385;1254;71810;-54
2024/02/10 08:27:40;;;;;;;1.10;0.60;;;;;;;0.56;100.00;99413.84;105316;1257;60820;-54
2024/02/10 08:30:17;;;;;;;1.30;0.70;;;;;;;0.58;100.00;99411.35;105093;1254;60896;-53
2024/02/10 08:32:45;;;;;;;1.00;0.70;;;;;;;0.61;100.00;99414.28;106060;1253;72614;-55
2024/02/10 08:35:13;;;;;;;1.70;0.60;;;;;;;0.62;100.00;99420.27;104844;1260;65846;-54
2024/02/10 08:37:42;;;;;;;1.30;0.70;;;;;;;0.65;100.00;99427.14;105581;1254;72893;-54
2024/02/10 08:40:10;;;;;;;2.20;0.80;;;;;;;0.64;100.00;99425.02;105077;1254;60999;-53
2024/02/10 08:42:38;;;;;;;0.90;0.60;;;;;;;0.66;100.00;99425.18;105725;1254;60423;-54
2024/02/10 08:45:05;;;;;;;2.20;1.00;;;;;;;0.69;100.00;99424.58;104957;1255;72759;-55
2024/02/10 08:47:33;;;;;;;1.00;0.70;;;;;;;0.70;100.00;99424.04;105503;1255;65231;-54
2024/02/10 08:50:01;;;;;;;1.00;0.50;;;;;;;0.70;100.00;99418.05;105074;1259;71482;-55
2024/02/10 08:52:30;;;;;;;1.10;0.70;;;;;;;0.71;100.00;99417.68;105285;1254;62572;-55
2024/02/10 08:54:59;;;;;;;1.60;0.80;;;;;;;0.71;100.00;99417.15;105322;1254;60547;-53
2024/02/10 08:57:26;;;;;;;2.00;0.90;;;;;;;0.69;100.00;99415.76;105071;1260;73892;-53
2024/02/10 08:59:55;;;;;;;1.60;0.70;;;;;;;0.69;100.00;99415.41;104896;1254;66931;-53
2024/02/10 09:02:22;;;;;;;1.50;0.60;;;;;;;0.71;100.00;99410.96;104971;1253;72828;-53
2024/02/10 09:04:52;;;;;;;1.00;0.80;;;;;;;0.72;100.00;99413.25;105276;1254;60878;-53
2024/02/10 09:07:20;;;;;;;0.90;0.70;;;;;;;0.73;100.00;99408.65;105314;1257;60526;-52
2024/02/10 09:09:47;;;;;;;1.90;0.90;;;;;;;0.73;100.00;99412.17;106349;1259;73922;-54
2024/02/10 09:12:16;;;;;;;3.70;0.80;;;;;;;0.72;100.00;99414.84;104857;1254;66206;-53
2024/02/10 09:14:45;;;;;;;1.00;0.90;;;;;;;0.69;100.00;99418.59;104912;1258;72778;-55
2024/02/10 09:17:12;;;;;;;1.10;0.80;;;;;;;0.67;100.00;99412.45;105229;1253;60456;-54
2024/02/10 09:19:41;;;;;;;1.60;0.90;;;;;;;0.64;100.00;99416.02;104932;1253;60352;-53
2024/02/10 09:22:09;;;;;;;1.10;0.80;;;;;;;0.63;100.00;99417.09;105479;1258;73747;-54
2024/02/10 09:24:39;;;;;;;3.00;1.00;;;;;;;0.64;100.00;99420.26;105358;1254;65740;-53
2024/02/10 09:27:10;;;;;;;0.80;0.70;;;;;;;0.64;100.00;99418.85;104900;1255;71424;-54
2024/02/10 09:29:38;;;;;;;1.10;0.70;;;;;;;0.65;100.00;99420.06;104979;1254;61150;-54
2024/02/10 09:32:06;;;;;;;1.00;0.60;;;;;;;0.65;100.00;99416.72;104953;1257;60380;-54
2024/02/10 09:34:34;;;;;;;1.30;0.70;;;;;;;0.66;100.00;99416.52;105642;1253;72564;-53
2024/02/10 09:37:01;;;;;;;2.10;1.30;;;;;;;0.70;100.00;99418.40;107040;1254;66089;-54
2024/02/10 09:39:29;;;;;;;2.00;0.70;;;;;;;0.72;100.00;99421.73;104801;1254;72973;-53
2024/02/10 09:42:00;;;;;;;1.30;0.70;;;;;;;0.75;100.00;99418.52;104944;1257;63250;-54
2024/02/10 09:44:33;;;;;;;0.90;0.70;;;;;;;0.80;100.00;99419.33;105224;1254;59622;-53
2024/02/10 09:47:01;;;;;;;2.00;0.70;;;;;;;0.83;100.00;99416.65;104895;1254;72659;-54
2024/02/10 09:49:29;;;;;;;1.40;0.70;;;;;;;0.84;100.00;99421.58;107778;1253;66869;-53
2024/02/10 09:51:58;;;;;;;1.20;0.70;;;;;;;0.82;100.00;99419.30;105535;1254;71424;-53
2024/02/10 09:54:26;;;;;;;1.60;0.70;;;;;;;0.82;100.00;99421.25;105473;1254;60624;-54
2024/02/10 09:56:56;;;;;;;1.10;0.80;;;;;;;0.82;100.00;99418.94;104806;1257;60457;-54
2024/02/10 09:59:24;;;;;;;0.90;0.70;;;;;;;0.86;100.00;99417.83;105203;1254;72567;-54
2024/02/10 10:01:59;;;;;;;1.00;0.60;;;;;;;0.89;100.00;99417.61;104968;1254;65975;-51
2024/02/10 10:04:26;;;;;;;1.30;0.70;;;;;;;0.91;100.00;99416.70;104839;1254;71485;-53
2024/02/10 10:06:56;;;;;;;0.90;0.50;;;;;;;0.93;100.00;99414.72;104991;1257;61241;-54
2024/02/10 10:09:23;;;;;;;1.90;0.80;;;;;;;0.94;100.00;99412.58;109017;1253;60526;-54
2024/02/10 10:11:50;;;;;;;0.70;0.70;;;;;;;0.93;100.00;99411.38;109111;1253;72897;-54
2024/02/10 10:14:19;;;;;;;1.60;0.70;;;;;;;0.91;100.00;99403.80;108978;1254;67914;-55
2024/02/10 10:16:58;;;;;;;0.80;0.50;;;;;;;0.90;100.00;99402.40;109119;1254;72835;-54
2024/02/10 10:19:26;;;;;;;0.90;0.60;;;;;;;0.90;100.00;99405.41;109068;1253;59579;-54
2024/02/10 10:21:58;;;;;;;1.20;0.50;;;;;;;0.87;100.00;99400.84;109015;1255;61920;-55
2024/02/10 10:24:26;;;;;;;1.50;0.50;;;;;;;0.86;100.00;99402.27;109050;1252;73898;-55
2024/02/10 10:26:56;;;;;;;2.20;0.40;;;;;;;0.87;100.00;99399.08;109197;1253;67902;-55
2024/02/10 10:29:23;;;;;;;1.00;0.80;;;;;;;0.88;100.00;99398.35;108991;1253;73198;-55
2024/02/10 10:31:53;;;;;;;0.80;0.50;;;;;;;0.91;100.00;99396.91;104917;1256;60632;-52
2024/02/10 10:34:22;;;;;;;0.70;0.50;;;;;;;0.93;100.00;99394.60;109093;1256;60002;-54
2024/02/10 10:36:52;;;;;;;2.20;0.50;;;;;;;0.94;100.00;99397.57;109073;1252;74301;-55
2024/02/10 10:39:21;;;;;;;1.50;0.50;;;;;;;0.97;100.00;99399.64;109024;1253;67095;-55
2024/02/10 10:41:48;;;;;;;1.50;0.50;;;;;;;1.01;100.00;99395.88;109070;1253;74916;-55
2024/02/10 10:44:17;;;;;;;0.50;0.30;;;;;;;1.03;100.00;99393.86;108957;1254;60894;-55
2024/02/10 10:46:45;;;;;;;0.90;0.40;;;;;;;1.07;100.00;99396.84;108006;1252;60105;-54
2024/02/10 10:49:12;;;;;;;0.80;0.50;;;;;;;1.09;100.00;99392.75;105040;1253;74013;-53
2024/02/10 10:52:03;;;;;;;1.90;0.40;;;;;;;1.09;100.00;99393.62;108828;1253;66184;-55
2024/02/10 10:54:38;;;;;;;0.50;0.40;;;;;;;1.13;100.00;99395.85;105697;1254;71490;-54
2024/02/10 10:57:16;;;;;;;0.60;0.40;;;;;;;1.14;100.00;99389.64;104946;1254;60403;-51
2024/02/10 10:59:47;;;;;;;0.90;0.40;;;;;;;1.14;100.00;99385.75;109169;1252;58544;-55
2024/02/10 11:02:14;;;;;;;0.50;0.50;;;;;;;1.14;100.00;99388.94;105804;1253;72558;-54
2024/02/10 11:05:03;;;;;;;0.50;0.40;;;;;;;1.13;100.00;99386.30;106844;1252;65843;-54
2024/02/10 11:07:36;;;;;;;0.40;0.30;;;;;;;1.11;100.00;99385.79;105506;1254;72799;-53
2024/02/10 11:10:05;;;;;;;1.70;0.40;;;;;;;1.10;100.00;99387.42;105014;1253;60914;-52
2024/02/10 11:12:32;;;;;;;0.70;0.30;;;;;;;1.09;100.00;99389.56;105377;1258;60450;-54
2024/02/10 11:15:00;;;;;;;0.40;0.30;;;;;;;1.06;100.00;99388.00;105491;1254;73802;-52
2024/02/10 11:17:29;;;;;;;0.40;0.30;;;;;;;1.03;100.00;99388.39;104778;1260;67339;-54
2024/02/10 11:20:03;;;;;;;1.00;0.30;;;;;;;1.01;100.00;99387.39;104867;1258;70876;-55
2024/02/10 11:22:37;;;;;;;0.20;0.20;;;;;;;1.00;100.00;99384.93;105295;1254;61104;-55
2024/02/10 11:25:11;;;;;;;0.60;0.30;;;;;;;1.01;100.00;99387.20;104843;1253;60511;-54
2024/02/10 11:27:46;;;;;;;0.30;0.20;;;;;;;1.03;100.00;99393.35;104759;1253;72934;-54
2024/02/10 11:30:13;;;;;;;0.30;0.30;;;;;;;1.07;100.00;99394.71;105535;1260;66271;-55
2024/02/10 11:32:42;;;;;;;0.60;0.30;;;;;;;1.08;100.00;99389.92;104943;1257;72793;-55